メインページ
METAR-TAF:

METAR-TAF

空港 :

アルハンゲリスク, ロシア

緯度: 64-30N, 経度: 040-44E, 海抜: 13m

現時点の気象観測

当レポートは47分前の09:00(UTC)に作成
北/北西の風 10kt、西/北西からの間で変化する
気温 1°C
湿度 75%
気圧 1009 hPa
視程10km以上
高度3000ftの雲はほとんどない

METAR: ULAA 250900Z 33005MPS 300V010 9999 FEW030 01/M03 Q1009 R26/610360 NOSIG RMK QFE755/1007

時間: 12:47 (09:47 UTC)

予報

当レポートは1時間47分前の08:00(UTC)に作成
予報は25日の 09時(UTC)から 26日の 09時(UTC)まで有効
西/北西の風 12kt
視程10km以上
高度1100ftの雲は散在している
高度7000ftの千切れ雲あり
25日の 16時(UTC)から 26日の 06時(UTC)まで一時的に
変向風 2kt
視程: 0400m
高度200ftの雲は散在している
着氷性の霧
26日の 06時(UTC)から 26日の 08時(UTC)まで徐々に
南/南西の風 10kt

TAF: ULAA 250800Z 2509/2609 30006MPS 9999 SCT011 BKN070 TEMPO 2516/2606 VRB01MPS 0400 FZFG SCT002 BECMG 2606/2608 21005MPS

4,000以上の空港の気象観測と天気予報(METAR報とTAF報)

利用可能な観測所は地図上に黄色い丸と赤い丸で示す。

丸の上にカーソルを重ねると観測所名を参照できる。

次にクリックすると気象観測と天気予報を参照できる。

マップの切り替え:黒色「×」印の緑ボタンをクリックして拡大、「-」印の緑ボタンをクリックして縮小、緑色の三角印をクリックして隣りの地図に切り替え


METAR-TAF: